Time;durP1;ratioP1;P1;durP2;ratioP2;P2;SDS_P1;SDS_P2;PMS_P1;PMS_P2;Temp;Humidity;BMP_temperature;BMP_pressure;BME280_temperature;BME280_humidity;BME280_pressure;Samples;Min_cycle;Max_cycle;Signal;HPM_P1;HPM_P2
2024/02/07 00:00:48;;;;;;;8.90;4.63;;;12.10;99.90;;;;;;5062631;28;20447;-71
2024/02/07 00:03:14;;;;;;;8.00;5.17;;;12.00;99.90;;;;;;5083818;28;20436;-71
2024/02/07 00:05:40;;;;;;;8.90;5.00;;;12.10;99.90;;;;;;5086314;28;21004;-71
2024/02/07 00:08:06;;;;;;;7.90;4.67;;;12.00;99.90;;;;;;5095699;28;20416;-71
2024/02/07 00:10:32;;;;;;;8.80;5.53;;;12.00;99.90;;;;;;5079281;28;20500;-71
2024/02/07 00:12:58;;;;;;;10.73;5.33;;;12.00;99.90;;;;;;5079059;28;21118;-71
2024/02/07 00:15:26;;;;;;;7.60;4.90;;;12.00;99.90;;;;;;5094623;28;20528;-72
2024/02/07 00:17:53;;;;;;;13.57;5.20;;;12.00;99.90;;;;;;5074178;28;20551;-71
2024/02/07 00:20:19;;;;;;;15.40;6.37;;;12.00;99.90;;;;;;5079814;28;20465;-71
2024/02/07 00:22:45;;;;;;;8.40;5.13;;;12.00;99.90;;;;;;5078481;28;20432;-71
2024/02/07 00:25:11;;;;;;;7.73;5.07;;;12.00;99.90;;;;;;5078566;28;20493;-71
2024/02/07 00:27:40;;;;;;;7.50;5.07;;;12.00;99.90;;;;;;5077941;28;20487;-71
2024/02/07 00:30:07;;;;;;;9.57;5.60;;;12.00;99.90;;;;;;5078042;28;20452;-71
2024/02/07 00:32:32;;;;;;;10.63;5.17;;;12.00;99.90;;;;;;5081364;28;20506;-71
2024/02/07 00:34:59;;;;;;;10.40;5.33;;;12.00;99.90;;;;;;5098143;28;20463;-71
2024/02/07 00:37:25;;;;;;;11.23;5.10;;;12.00;99.90;;;;;;5072596;28;20866;-71
2024/02/07 00:39:51;;;;;;;9.10;5.10;;;12.00;99.90;;;;;;5084954;28;20441;-71
2024/02/07 00:42:19;;;;;;;11.07;5.37;;;12.00;99.90;;;;;;5070496;28;20440;-71
2024/02/07 00:44:45;;;;;;;9.93;5.43;;;12.00;99.90;;;;;;5055742;28;20429;-71
2024/02/07 00:47:12;;;;;;;9.20;5.10;;;12.00;99.90;;;;;;5070660;28;20784;-71
2024/02/07 00:49:38;;;;;;;15.10;5.53;;;12.00;99.90;;;;;;5081502;28;20520;-71
2024/02/07 00:52:05;;;;;;;7.73;5.90;;;12.00;99.90;;;;;;5092785;28;20534;-71
2024/02/07 00:54:33;;;;;;;10.10;5.17;;;12.00;99.90;;;;;;5061002;28;20472;-71
2024/02/07 00:57:01;;;;;;;8.73;5.80;;;12.00;99.90;;;;;;5082857;28;20884;-71
2024/02/07 00:59:30;;;;;;;9.70;5.90;;;12.00;99.90;;;;;;5064631;28;20442;-71
2024/02/07 01:02:01;;;;;;;12.13;5.87;;;12.00;99.90;;;;;;5081802;28;20423;-71
2024/02/07 01:04:27;;;;;;;8.77;5.00;;;12.00;99.90;;;;;;5079114;28;20542;-71
2024/02/07 01:06:55;;;;;;;8.03;5.50;;;12.00;99.90;;;;;;5078473;28;20709;-71
2024/02/07 01:09:21;;;;;;;9.10;5.30;;;12.00;99.90;;;;;;5100676;28;20686;-71
2024/02/07 01:11:47;;;;;;;8.70;5.60;;;12.00;99.90;;;;;;5098934;28;20420;-71
2024/02/07 01:14:14;;;;;;;9.50;5.30;;;12.00;99.90;;;;;;5077610;28;21434;-71
2024/02/07 01:16:46;;;;;;;11.50;5.93;;;12.00;99.90;;;;;;5082123;28;20542;-71
2024/02/07 01:19:12;;;;;;;8.03;5.07;;;12.00;99.90;;;;;;5081135;28;20448;-71
2024/02/07 01:21:41;;;;;;;7.67;5.50;;;12.00;99.90;;;;;;5100670;28;20447;-71
2024/02/07 01:24:12;;;;;;;6.90;5.20;;;12.00;99.90;;;;;;5100175;28;20547;-71
2024/02/07 01:26:38;;;;;;;12.30;4.93;;;12.00;99.90;;;;;;5079139;28;20452;-71
2024/02/07 01:29:05;;;;;;;12.63;4.87;;;12.00;99.90;;;;;;5081154;28;20459;-71
2024/02/07 01:31:33;;;;;;;9.40;5.10;;;12.00;99.90;;;;;;5078582;28;20440;-71
2024/02/07 01:33:59;;;;;;;8.80;5.40;;;12.00;99.90;;;;;;5064718;28;20486;-71
2024/02/07 01:36:25;;;;;;;7.90;5.00;;;12.00;99.90;;;;;;5074947;28;20536;-71
2024/02/07 01:38:51;;;;;;;8.90;4.83;;;12.00;99.90;;;;;;5080490;28;20461;-71
2024/02/07 01:41:19;;;;;;;4.83;4.33;;;12.00;99.90;;;;;;5059202;28;20454;-71
2024/02/07 01:43:47;;;;;;;5.97;4.60;;;12.00;99.90;;;;;;5078730;28;20471;-72
2024/02/07 01:46:14;;;;;;;10.03;4.70;;;12.00;99.90;;;;;;5079749;28;21879;-71
2024/02/07 01:48:43;;;;;;;9.30;5.40;;;12.00;99.90;;;;;;5098346;28;20725;-71
2024/02/07 01:51:12;;;;;;;7.80;5.30;;;12.00;99.90;;;;;;5063677;28;21095;-71
2024/02/07 01:53:41;;;;;;;9.73;5.63;;;12.00;99.90;;;;;;5065370;28;20432;-71
2024/02/07 01:56:08;;;;;;;9.40;5.10;;;12.00;99.90;;;;;;5062756;28;20906;-71
2024/02/07 01:58:36;;;;;;;10.83;4.53;;;12.00;99.90;;;;;;5080287;28;20448;-71
2024/02/07 02:01:03;;;;;;;7.27;5.03;;;12.00;99.90;;;;;;5098157;28;20439;-71
2024/02/07 02:03:29;;;;;;;7.50;4.80;;;12.00;99.90;;;;;;5080793;28;20436;-72
2024/02/07 02:05:56;;;;;;;7.73;5.07;;;12.00;99.90;;;;;;5090907;28;20448;-71
2024/02/07 02:08:24;;;;;;;7.87;4.53;;;12.00;99.90;;;;;;5089690;28;20507;-71
2024/02/07 02:11:04;;;;;;;12.90;4.93;;;12.00;99.90;;;;;;5071427;28;20441;-71
2024/02/07 02:13:33;;;;;;;11.60;5.53;;;12.00;99.90;;;;;;5080902;28;20440;-71
2024/02/07 02:16:03;;;;;;;9.30;5.20;;;12.00;99.90;;;;;;5063303;28;20880;-71
2024/02/07 02:18:30;;;;;;;6.60;5.50;;;12.00;99.90;;;;;;5098480;28;20939;-71
2024/02/07 02:21:00;;;;;;;10.17;6.07;;;12.00;99.90;;;;;;5056997;28;20435;-71
2024/02/07 02:23:48;;;;;;;6.07;5.20;;;12.00;99.90;;;;;;5056006;28;20433;-71
2024/02/07 02:26:54;;;;;;;5.43;4.30;;;12.00;99.90;;;;;;5078417;28;20460;-71
2024/02/07 02:29:32;;;;;;;6.73;5.40;;;12.00;99.90;;;;;;5064442;28;20440;-71
2024/02/07 02:32:01;;;;;;;7.83;5.30;;;12.00;99.90;;;;;;5070619;28;20560;-71
2024/02/07 02:34:28;;;;;;;6.03;5.20;;;12.00;99.90;;;;;;5073138;28;20997;-71
2024/02/07 02:36:58;;;;;;;14.10;5.50;;;12.00;99.90;;;;;;5090866;28;20551;-71
2024/02/07 02:39:29;;;;;;;9.63;6.27;;;12.00;99.90;;;;;;5060264;28;20412;-71
2024/02/07 02:41:56;;;;;;;10.47;5.30;;;12.00;99.90;;;;;;5073114;28;21004;-71
2024/02/07 02:44:25;;;;;;;9.13;5.13;;;12.00;99.90;;;;;;5079564;28;21395;-71
2024/02/07 02:46:51;;;;;;;9.27;5.50;;;12.00;99.90;;;;;;5039423;28;20516;-72
2024/02/07 02:49:17;;;;;;;11.93;5.90;;;12.00;99.90;;;;;;5079609;28;20513;-72
2024/02/07 02:51:45;;;;;;;12.37;4.97;;;12.00;99.90;;;;;;5058885;28;21721;-71
2024/02/07 02:54:15;;;;;;;11.50;6.17;;;12.00;99.90;;;;;;5070955;28;20467;-71
2024/02/07 02:56:41;;;;;;;9.00;6.40;;;12.00;99.90;;;;;;5062919;28;21316;-71
2024/02/07 02:59:10;;;;;;;13.43;5.33;;;12.00;99.90;;;;;;5063541;28;20450;-71
2024/02/07 03:01:39;;;;;;;17.20;5.43;;;12.00;99.90;;;;;;5072301;28;20443;-71
2024/02/07 03:04:15;;;;;;;9.50;5.13;;;12.00;99.90;;;;;;5095929;28;20463;-71
2024/02/07 03:07:13;;;;;;;10.80;4.73;;;12.00;99.90;;;;;;5075480;28;20509;-71
2024/02/07 03:09:48;;;;;;;10.50;5.20;;;12.00;99.90;;;;;;5068689;28;20448;-71
2024/02/07 03:12:15;;;;;;;6.40;4.20;;;12.00;99.90;;;;;;5078520;28;20667;-71
2024/02/07 03:14:44;;;;;;;8.13;5.20;;;12.00;99.90;;;;;;5091150;28;20456;-71
2024/02/07 03:17:14;;;;;;;6.27;4.50;;;12.00;99.90;;;;;;5045148;28;21103;-71
2024/02/07 03:19:42;;;;;;;6.93;4.73;;;12.00;99.90;;;;;;5062950;28;21141;-71
2024/02/07 03:22:10;;;;;;;9.90;5.07;;;12.00;99.90;;;;;;5058236;28;20445;-71
2024/02/07 03:24:39;;;;;;;8.90;5.50;;;12.00;99.90;;;;;;5048086;28;20418;-71
2024/02/07 03:27:09;;;;;;;12.37;5.70;;;11.90;99.90;;;;;;5098468;28;20446;-71
2024/02/07 03:29:37;;;;;;;5.63;4.50;;;11.90;99.90;;;;;;5046970;28;21039;-71
2024/02/07 03:32:09;;;;;;;10.80;5.40;;;12.00;99.90;;;;;;5077322;28;20444;-71
2024/02/07 03:34:38;;;;;;;8.17;5.00;;;12.00;99.90;;;;;;5091881;28;21194;-71
2024/02/07 03:37:05;;;;;;;9.30;5.40;;;12.00;99.90;;;;;;5061636;28;20865;-71
2024/02/07 03:39:31;;;;;;;8.63;4.67;;;12.00;99.90;;;;;;5079300;28;20526;-71
2024/02/07 03:41:57;;;;;;;5.20;3.87;;;12.00;99.90;;;;;;5071211;28;20477;-71
2024/02/07 03:44:23;;;;;;;6.03;3.90;;;12.00;99.90;;;;;;5071397;28;20446;-71
2024/02/07 03:46:49;;;;;;;5.03;3.70;;;12.00;99.90;;;;;;5073955;28;20444;-71
2024/02/07 03:49:21;;;;;;;7.30;3.87;;;12.00;99.90;;;;;;5079864;28;20477;-71
2024/02/07 03:51:52;;;;;;;7.33;4.47;;;12.00;99.90;;;;;;5094506;28;20450;-71
2024/02/07 03:54:20;;;;;;;8.90;4.77;;;11.90;99.90;;;;;;5063235;28;20506;-71
2024/02/07 03:56:48;;;;;;;5.53;3.90;;;11.90;99.90;;;;;;5094059;28;20543;-71
2024/02/07 03:59:15;;;;;;;5.77;4.13;;;11.90;99.90;;;;;;5096916;28;20413;-71
2024/02/07 04:01:45;;;;;;;8.00;4.73;;;11.90;99.90;;;;;;5077047;28;21213;-72
2024/02/07 04:04:11;;;;;;;7.60;4.27;;;11.80;99.90;;;;;;5046336;23;20973;-36
2024/02/07 04:06:37;;;;;;;5.77;4.27;;;11.80;99.90;;;;;;5064203;28;20418;-36
2024/02/07 04:09:05;;;;;;;7.73;3.73;;;11.80;99.90;;;;;;5069328;28;20429;-39
2024/02/07 05:16:58;;;;;;;3.27;2.30;;;11.50;99.90;;;;;;5058056;28;20420;-33
2024/02/07 05:19:24;;;;;;;3.37;2.20;;;11.50;99.90;;;;;;5080148;28;21036;-40
2024/02/07 05:21:52;;;;;;;3.67;2.37;;;11.50;99.90;;;;;;5080109;28;20441;-36
2024/02/07 05:24:22;;;;;;;3.47;2.53;;;11.50;99.90;;;;;;5072055;28;20783;-33
2024/02/07 05:26:48;;;;;;;3.50;2.43;;;11.50;99.90;;;;;;5079092;28;21238;-38
2024/02/07 05:29:16;;;;;;;4.20;2.40;;;11.50;99.90;;;;;;5054628;28;20424;-36
2024/02/07 05:31:42;;;;;;;3.23;2.33;;;11.50;99.90;;;;;;5079434;28;20537;-33
2024/02/07 05:34:08;;;;;;;3.07;2.13;;;11.50;99.90;;;;;;5078802;28;20504;-33
2024/02/07 05:36:34;;;;;;;2.70;2.00;;;11.40;99.90;;;;;;5079260;28;20451;-37
2024/02/07 05:39:02;;;;;;;2.60;2.30;;;11.40;99.90;;;;;;5083904;28;20449;-35
2024/02/07 05:41:28;;;;;;;5.50;2.13;;;11.40;99.90;;;;;;5083652;28;20445;-36
2024/02/07 05:43:56;;;;;;;3.20;2.50;;;11.40;99.90;;;;;;5110395;22;21444;-24
2024/02/07 05:46:25;;;;;;;3.70;1.90;;;11.40;99.90;;;;;;5087455;28;20412;-24
2024/02/07 05:48:53;;;;;;;2.50;1.83;;;11.40;99.90;;;;;;5122439;27;20430;-22
2024/02/07 05:51:23;;;;;;;2.73;1.90;;;11.40;99.90;;;;;;5115118;27;20447;-23
2024/02/07 05:53:53;;;;;;;3.67;1.60;;;11.40;99.90;;;;;;5113653;28;20484;-24
2024/02/07 05:56:20;;;;;;;2.80;2.17;;;11.40;99.90;;;;;;5080958;28;20460;-24
2024/02/07 05:58:51;;;;;;;2.93;1.70;;;11.40;99.90;;;;;;5109679;28;20494;-22
2024/02/07 06:01:23;;;;;;;3.97;2.00;;;11.40;99.90;;;;;;5104778;28;20432;-23
2024/02/07 06:03:52;;;;;;;3.07;1.87;;;11.40;99.90;;;;;;5079786;28;20436;-24
2024/02/07 06:06:29;;;;;;;1.90;1.37;;;11.30;99.90;;;;;;5084815;28;20428;-26
2024/02/07 06:08:58;;;;;;;2.93;2.20;;;11.30;99.90;;;;;;5074968;28;20456;-22
2024/02/07 06:11:31;;;;;;;3.30;1.97;;;11.30;99.90;;;;;;5093330;28;20444;-23
2024/02/07 06:13:59;;;;;;;3.53;1.70;;;11.30;99.90;;;;;;5103627;28;20556;-22
2024/02/07 06:16:27;;;;;;;3.90;2.20;;;11.30;99.90;;;;;;5107438;28;20505;-24
2024/02/07 06:18:53;;;;;;;2.17;1.90;;;11.30;99.90;;;;;;5099094;28;20497;-24
2024/02/07 06:21:22;;;;;;;3.27;2.17;;;11.30;99.90;;;;;;5102668;28;20471;-23
2024/02/07 06:23:51;;;;;;;2.43;1.77;;;11.30;99.90;;;;;;5098305;28;20945;-22
2024/02/07 06:26:17;;;;;;;4.40;2.57;;;11.30;99.90;;;;;;5098175;28;20460;-25
2024/02/07 06:28:46;;;;;;;3.77;2.40;;;11.20;99.90;;;;;;5099627;28;20811;-25
2024/02/07 06:31:12;;;;;;;3.10;1.80;;;11.20;99.90;;;;;;5100936;28;20424;-23
2024/02/07 06:33:40;;;;;;;2.00;1.80;;;11.30;99.90;;;;;;5087717;28;20439;-23
2024/02/07 06:36:06;;;;;;;4.80;2.07;;;11.20;99.90;;;;;;5101106;28;20484;-23
2024/02/07 06:38:33;;;;;;;4.60;2.63;;;11.20;99.90;;;;;;5081886;28;20440;-24
2024/02/07 06:40:59;;;;;;;4.60;2.30;;;11.20;99.90;;;;;;5080332;28;20617;-24
2024/02/07 06:43:29;;;;;;;3.73;2.47;;;11.20;99.90;;;;;;5074934;28;20438;-24
2024/02/07 06:45:57;;;;;;;3.93;1.90;;;11.20;99.90;;;;;;5087886;28;20441;-25
2024/02/07 06:48:24;;;;;;;4.07;1.60;;;11.20;99.90;;;;;;5110289;28;20428;-26
2024/02/07 06:50:50;;;;;;;2.70;1.87;;;11.20;99.90;;;;;;5100731;28;20444;-25
2024/02/07 06:53:17;;;;;;;3.57;1.60;;;11.20;99.90;;;;;;5087809;28;20499;-24
2024/02/07 06:55:43;;;;;;;4.30;1.60;;;11.20;99.90;;;;;;5100235;28;20463;-25
2024/02/07 06:58:11;;;;;;;3.17;1.80;;;11.20;99.90;;;;;;5101419;28;20446;-24
2024/02/07 07:00:38;;;;;;;2.80;1.50;;;11.20;99.90;;;;;;5100065;28;20432;-23
2024/02/07 07:03:06;;;;;;;2.87;1.83;;;11.20;99.90;;;;;;5083134;28;20452;-25
2024/02/07 07:05:33;;;;;;;4.47;2.20;;;11.10;99.90;;;;;;5067483;28;20424;-25
2024/02/07 07:07:59;;;;;;;8.53;4.60;;;11.20;99.90;;;;;;5075796;28;20491;-24
2024/02/07 07:10:27;;;;;;;7.27;3.83;;;11.20;99.90;;;;;;5103193;28;20432;-24
2024/02/07 07:12:55;;;;;;;5.23;3.60;;;11.10;99.90;;;;;;5103729;28;20443;-25
2024/02/07 07:15:21;;;;;;;6.10;4.40;;;11.10;99.90;;;;;;5090980;28;20595;-24
2024/02/07 07:17:49;;;;;;;5.53;5.00;;;11.10;99.90;;;;;;5078392;28;20540;-24
2024/02/07 07:20:17;;;;;;;7.63;4.90;;;11.10;99.90;;;;;;5073391;28;20444;-25
2024/02/07 07:22:48;;;;;;;4.90;4.37;;;11.10;99.90;;;;;;5080413;28;20548;-25
2024/02/07 07:25:13;;;;;;;10.13;5.73;;;11.10;99.90;;;;;;5094634;28;20439;-24
2024/02/07 07:27:42;;;;;;;6.73;4.80;;;11.10;99.90;;;;;;5085457;28;20462;-25
2024/02/07 07:30:08;;;;;;;7.00;4.00;;;11.10;99.90;;;;;;5076849;28;20441;-24
2024/02/07 07:32:37;;;;;;;5.60;3.70;;;11.10;99.90;;;;;;5082679;28;20483;-24
2024/02/07 07:35:04;;;;;;;4.87;3.47;;;11.00;99.90;;;;;;5100163;28;20537;-24
2024/02/07 07:37:32;;;;;;;5.17;3.23;;;11.10;99.90;;;;;;5097204;28;20429;-24
2024/02/07 07:39:58;;;;;;;5.10;3.50;;;11.10;99.90;;;;;;5080364;28;20589;-24
2024/02/07 07:42:24;;;;;;;3.30;3.00;;;11.10;99.90;;;;;;5095980;28;20470;-24
2024/02/07 07:44:50;;;;;;;4.50;3.27;;;11.00;99.90;;;;;;5100487;28;20462;-24
2024/02/07 07:47:16;;;;;;;4.33;2.73;;;11.00;99.90;;;;;;5101120;28;20436;-25
2024/02/07 07:49:44;;;;;;;6.00;3.03;;;11.00;99.90;;;;;;5093437;28;20432;-24
2024/02/07 07:52:15;;;;;;;3.20;2.80;;;11.00;99.90;;;;;;5100219;28;20936;-25
2024/02/07 07:54:42;;;;;;;3.70;2.57;;;11.00;99.90;;;;;;5066098;28;20542;-24
2024/02/07 07:57:08;;;;;;;3.43;2.70;;;11.00;99.90;;;;;;5098526;28;21299;-25
2024/02/07 07:59:39;;;;;;;4.07;2.77;;;11.00;99.90;;;;;;5067004;28;20454;-24
2024/02/07 08:02:06;;;;;;;4.63;3.20;;;11.00;99.90;;;;;;5099803;28;20485;-24
2024/02/07 08:04:32;;;;;;;3.60;2.67;;;11.00;99.90;;;;;;5095553;28;20425;-23
2024/02/07 08:07:04;;;;;;;4.57;3.10;;;11.00;99.90;;;;;;5093773;28;20432;-25
2024/02/07 08:09:30;;;;;;;3.60;3.10;;;11.00;99.90;;;;;;5097094;28;20514;-24
2024/02/07 08:11:58;;;;;;;4.07;2.90;;;10.90;99.90;;;;;;5075567;28;20563;-25
2024/02/07 08:14:26;;;;;;;5.97;3.10;;;10.90;99.90;;;;;;5084165;28;20420;-24
2024/02/07 08:16:52;;;;;;;3.30;3.00;;;10.90;99.90;;;;;;5078224;28;20448;-25
2024/02/07 08:19:18;;;;;;;5.57;3.00;;;10.90;99.90;;;;;;5097050;28;20440;-24
2024/02/07 08:21:44;;;;;;;2.80;2.47;;;10.90;99.90;;;;;;5095976;28;20436;-24
2024/02/07 08:24:10;;;;;;;6.07;2.63;;;10.90;99.90;;;;;;5085862;28;20428;-25
2024/02/07 08:26:36;;;;;;;2.93;2.40;;;10.90;99.90;;;;;;5102031;28;20459;-24
2024/02/07 08:29:02;;;;;;;3.50;2.50;;;10.90;99.90;;;;;;5095842;28;20424;-25
2024/02/07 08:31:28;;;;;;;3.10;2.30;;;10.90;99.90;;;;;;5079308;28;20832;-24
2024/02/07 08:33:57;;;;;;;4.60;3.00;;;10.90;99.90;;;;;;5102881;28;20403;-25
2024/02/07 08:36:23;;;;;;;3.53;2.40;;;10.90;99.90;;;;;;5084072;28;20453;-23
2024/02/07 08:38:49;;;;;;;4.23;2.10;;;10.90;99.90;;;;;;5091573;28;20449;-23
2024/02/07 08:41:14;;;;;;;4.10;2.60;;;10.90;99.90;;;;;;5101864;28;21585;-35
2024/02/07 08:43:42;;;;;;;3.73;2.43;;;10.90;99.90;;;;;;5093672;28;20441;-25
2024/02/07 08:46:08;;;;;;;5.37;2.70;;;10.90;99.90;;;;;;5092276;28;20184;-25
2024/02/07 08:48:34;;;;;;;2.87;2.40;;;10.80;99.90;;;;;;5093195;28;20424;-24
2024/02/07 08:51:03;;;;;;;3.90;3.17;;;10.90;99.90;;;;;;5095763;28;20416;-24
2024/02/07 08:53:31;;;;;;;3.57;2.33;;;10.90;99.90;;;;;;5098461;28;20423;-23
2024/02/07 08:56:01;;;;;;;3.70;2.23;;;10.80;99.90;;;;;;5105870;28;20539;-24
2024/02/07 08:58:30;;;;;;;3.77;2.40;;;10.80;99.90;;;;;;5078871;28;20577;-24
2024/02/07 09:00:56;;;;;;;2.53;2.33;;;10.80;99.90;;;;;;5097371;28;20432;-24
2024/02/07 09:03:25;;;;;;;4.00;2.63;;;10.80;99.90;;;;;;5075074;28;20429;-25
2024/02/07 09:05:51;;;;;;;2.97;2.43;;;10.80;99.90;;;;;;5089328;28;20428;-24
2024/02/07 09:08:19;;;;;;;3.13;2.40;;;10.80;99.90;;;;;;5064909;28;20424;-23
2024/02/07 09:10:46;;;;;;;2.80;2.40;;;10.80;99.90;;;;;;5094622;28;20443;-25
2024/02/07 09:13:11;;;;;;;3.50;2.30;;;10.80;99.90;;;;;;5077800;28;20448;-24
2024/02/07 09:15:39;;;;;;;3.80;2.40;;;10.80;99.90;;;;;;5098764;28;20896;-24
2024/02/07 09:18:05;;;;;;;2.53;2.07;;;10.70;99.90;;;;;;5103604;28;20448;-24
2024/02/07 09:20:33;;;;;;;3.93;2.83;;;10.70;99.90;;;;;;5079346;28;20421;-23
2024/02/07 09:23:03;;;;;;;7.70;2.63;;;10.70;99.90;;;;;;5059542;28;20456;-24
2024/02/07 09:25:29;;;;;;;3.43;2.67;;;10.70;99.90;;;;;;5092265;28;20432;-24
2024/02/07 09:27:57;;;;;;;4.17;2.70;;;10.70;99.90;;;;;;5090537;28;20424;-24
2024/02/07 09:30:25;;;;;;;3.70;2.30;;;10.70;99.90;;;;;;5074775;28;20210;-24
2024/02/07 09:32:51;;;;;;;4.30;2.43;;;10.70;99.90;;;;;;5076523;28;20459;-23
2024/02/07 09:35:20;;;;;;;4.37;2.33;;;10.70;99.90;;;;;;5080318;28;20533;-23
2024/02/07 09:37:46;;;;;;;3.47;2.47;;;10.70;99.90;;;;;;5086039;28;20502;-25
2024/02/07 09:40:12;;;;;;;4.50;2.33;;;10.70;99.90;;;;;;5069988;28;20424;-25
2024/02/07 09:42:43;;;;;;;3.17;2.80;;;10.70;99.90;;;;;;5089859;28;20441;-24
2024/02/07 09:45:13;;;;;;;2.73;2.40;;;10.70;99.90;;;;;;5013830;28;1155670;-25
2024/02/07 09:48:00;;;;;;;3.90;2.40;;;10.70;99.90;;;;;;5090456;28;20863;-24
2024/02/07 09:50:26;;;;;;;3.13;2.63;;;10.70;99.90;;;;;;5073158;28;20549;-28
2024/02/07 09:52:53;;;;;;;2.80;2.40;;;10.70;99.90;;;;;;5056470;28;20445;-24
2024/02/07 09:55:19;;;;;;;4.63;2.90;;;10.70;99.90;;;;;;5100455;28;21009;-24
2024/02/07 09:57:48;;;;;;;3.60;2.20;;;10.70;99.90;;;;;;5077468;28;20460;-24
2024/02/07 10:00:14;;;;;;;4.63;2.70;;;10.70;99.90;;;;;;5104642;28;20400;-24
2024/02/07 10:02:49;;;;;;;3.20;2.50;;;10.60;99.90;;;;;;5083046;28;20515;-24
2024/02/07 10:05:21;;;;;;;3.17;2.30;;;10.60;99.90;;;;;;5077566;28;20439;-24
2024/02/07 10:07:52;;;;;;;3.83;2.30;;;10.60;99.90;;;;;;5094075;28;20424;-24
2024/02/07 10:10:19;;;;;;;2.50;2.13;;;10.60;99.90;;;;;;5083487;28;21010;-24
2024/02/07 10:12:45;;;;;;;3.30;2.10;;;10.60;99.90;;;;;;5078722;28;20563;-23
2024/02/07 10:15:14;;;;;;;5.40;2.63;;;10.60;99.90;;;;;;5081209;28;20456;-23
2024/02/07 10:17:40;;;;;;;3.33;2.67;;;10.60;99.90;;;;;;5099241;28;20444;-23
2024/02/07 10:20:10;;;;;;;3.63;2.27;;;10.60;99.90;;;;;;5064571;28;20460;-24
2024/02/07 10:22:42;;;;;;;5.07;2.57;;;10.60;99.90;;;;;;5096149;28;20483;-23
2024/02/07 10:25:12;;;;;;;4.30;2.57;;;10.60;99.90;;;;;;5100970;28;20420;-25
2024/02/07 10:27:39;;;;;;;3.70;2.60;;;10.60;99.90;;;;;;5083117;28;20459;-29
2024/02/07 10:30:09;;;;;;;3.47;2.30;;;10.60;99.90;;;;;;5080384;28;20539;-24
2024/02/07 10:32:36;;;;;;;4.10;2.57;;;10.60;99.90;;;;;;5055585;28;20554;-24
2024/02/07 10:35:05;;;;;;;2.87;2.50;;;10.60;99.90;;;;;;5074413;28;20466;-24
2024/02/07 10:37:43;;;;;;;5.23;2.90;;;10.60;99.90;;;;;;5102578;28;20421;-24
2024/02/07 10:40:14;;;;;;;3.00;2.37;;;10.60;99.90;;;;;;5079814;28;20429;-25
2024/02/07 10:42:40;;;;;;;2.83;2.53;;;10.60;99.90;;;;;;5099955;28;20441;-23
2024/02/07 10:45:09;;;;;;;5.60;2.43;;;10.60;99.90;;;;;;5071919;28;20535;-24
2024/02/07 10:47:37;;;;;;;4.43;2.47;;;10.50;99.90;;;;;;5052940;28;20405;-24
2024/02/07 10:50:09;;;;;;;2.63;2.00;;;10.60;99.90;;;;;;5066208;28;20476;-23
2024/02/07 10:52:39;;;;;;;4.20;2.70;;;10.60;99.90;;;;;;5067035;28;20440;-23
2024/02/07 10:55:08;;;;;;;5.87;2.57;;;10.60;99.90;;;;;;5070478;28;20494;-25
2024/02/07 10:57:44;;;;;;;4.37;2.97;;;10.50;99.90;;;;;;5103719;28;20424;-24
2024/02/07 11:00:11;;;;;;;6.03;2.90;;;10.60;99.90;;;;;;5091193;28;20420;-24
2024/02/07 11:02:39;;;;;;;4.90;3.17;;;10.50;99.90;;;;;;5081215;28;20437;-24
2024/02/07 11:05:08;;;;;;;4.40;2.70;;;10.50;99.90;;;;;;5083014;28;20416;-25
2024/02/07 11:07:36;;;;;;;4.10;2.40;;;10.50;99.90;;;;;;5081765;28;20434;-24
2024/02/07 11:10:03;;;;;;;2.73;2.50;;;10.50;99.90;;;;;;5101684;28;20463;-25
2024/02/07 11:12:31;;;;;;;8.67;2.87;;;10.50;99.90;;;;;;5089537;28;20524;-25
2024/02/07 11:15:03;;;;;;;5.87;2.87;;;10.50;99.90;;;;;;5060262;28;21022;-25
2024/02/07 11:17:30;;;;;;;7.63;3.07;;;10.50;99.90;;;;;;5093978;28;20434;-25
2024/02/07 11:19:56;;;;;;;3.60;2.60;;;10.50;99.90;;;;;;5082806;28;20412;-25
2024/02/07 11:23:00;;;;;;;5.40;2.70;;;10.50;99.90;;;;;;5075969;28;20474;-25
2024/02/07 11:25:28;;;;;;;4.57;2.77;;;10.50;99.90;;;;;;4998776;28;20959;-24
2024/02/07 11:27:57;;;;;;;6.27;3.33;;;10.50;99.90;;;;;;5063237;28;20468;-25
2024/02/07 11:30:23;;;;;;;5.13;2.80;;;10.50;99.90;;;;;;5091240;28;20417;-24
2024/02/07 11:32:51;;;;;;;5.40;2.93;;;10.50;99.90;;;;;;5078827;28;20500;-24
2024/02/07 11:35:24;;;;;;;8.83;3.63;;;10.50;99.90;;;;;;5083258;28;20539;-23
2024/02/07 11:37:51;;;;;;;3.77;3.33;;;10.40;99.90;;;;;;5075360;28;20439;-23
2024/02/07 11:40:18;;;;;;;10.30;5.10;;;10.50;99.90;;;;;;5069994;28;20436;-23
2024/02/07 11:42:45;;;;;;;6.70;4.27;;;10.50;99.90;;;;;;5080271;28;20455;-23
2024/02/07 11:45:15;;;;;;;6.60;4.37;;;10.40;99.90;;;;;;5103044;28;20460;-23
2024/02/07 11:47:51;;;;;;;6.10;3.97;;;10.50;99.90;;;;;;5073583;28;20456;-22
2024/02/07 11:50:20;;;;;;;7.70;4.20;;;10.40;99.90;;;;;;5099559;28;20742;-23
2024/02/07 11:52:46;;;;;;;5.87;4.30;;;10.40;99.90;;;;;;5069171;28;20457;-23
2024/02/07 11:55:16;;;;;;;5.03;4.00;;;10.40;99.90;;;;;;5095151;28;20464;-23
2024/02/07 11:57:47;;;;;;;9.20;4.50;;;10.50;99.90;;;;;;5065110;28;20424;-24
2024/02/07 12:00:21;;;;;;;6.40;4.80;;;10.40;99.90;;;;;;5091845;28;20454;-25
2024/02/07 12:02:47;;;;;;;7.23;4.57;;;10.40;99.90;;;;;;5095633;28;20468;-23
2024/02/07 12:05:15;;;;;;;6.70;4.53;;;10.50;99.90;;;;;;5072761;28;20500;-21
2024/02/07 12:07:41;;;;;;;8.93;4.80;;;10.40;99.90;;;;;;5077424;28;20426;-23
2024/02/07 12:10:11;;;;;;;6.53;4.63;;;10.50;99.90;;;;;;5067544;28;20409;-23
2024/02/07 12:12:37;;;;;;;6.27;4.37;;;10.40;99.90;;;;;;5083287;28;20455;-23
2024/02/07 12:15:04;;;;;;;8.87;5.10;;;10.40;99.90;;;;;;5038845;28;20819;-21
2024/02/07 12:17:34;;;;;;;6.10;4.67;;;10.40;99.90;;;;;;5082906;28;21306;-22
2024/02/07 12:20:02;;;;;;;7.23;4.97;;;10.40;99.90;;;;;;5108195;28;20435;-24
2024/02/07 12:22:31;;;;;;;9.90;4.80;;;10.40;99.90;;;;;;5089457;28;20437;-22
2024/02/07 12:25:02;;;;;;;6.13;4.47;;;10.40;99.90;;;;;;5105228;28;20463;-22
2024/02/07 12:27:29;;;;;;;11.13;5.20;;;10.40;99.90;;;;;;5102361;28;20528;-23
2024/02/07 12:29:57;;;;;;;7.67;4.80;;;10.40;99.90;;;;;;5077536;28;20608;-23
2024/02/07 12:32:25;;;;;;;9.10;5.80;;;10.40;99.90;;;;;;5077879;28;21040;-22
2024/02/07 12:34:53;;;;;;;8.70;4.73;;;10.40;99.90;;;;;;5088699;28;20499;-22
2024/02/07 12:37:19;;;;;;;9.60;5.20;;;10.40;99.90;;;;;;5085049;28;20621;-23
2024/02/07 12:39:50;;;;;;;8.20;5.03;;;10.40;99.90;;;;;;5095983;28;21056;-23
2024/02/07 12:42:20;;;;;;;11.30;6.03;;;10.40;99.90;;;;;;5082008;28;20441;-23
2024/02/07 12:44:50;;;;;;;8.97;6.13;;;10.40;99.90;;;;;;5097639;28;20437;-24
2024/02/07 12:47:18;;;;;;;11.83;5.87;;;10.40;99.90;;;;;;5102416;28;20425;-24
2024/02/07 12:49:45;;;;;;;7.63;5.90;;;10.40;99.90;;;;;;5074587;28;20428;-23
2024/02/07 12:52:12;;;;;;;10.27;6.70;;;10.40;99.90;;;;;;5090990;28;20528;-22
2024/02/07 12:54:39;;;;;;;11.07;5.70;;;10.40;99.90;;;;;;5101514;28;20475;-22
2024/02/07 12:57:05;;;;;;;11.77;6.30;;;10.40;99.90;;;;;;5095662;28;20424;-23
2024/02/07 12:59:36;;;;;;;14.87;6.10;;;10.40;99.90;;;;;;5081848;28;20435;-23
2024/02/07 13:02:06;;;;;;;12.80;7.00;;;10.40;99.90;;;;;;5093175;28;20482;-23
2024/02/07 13:04:35;;;;;;;12.03;7.03;;;10.40;99.90;;;;;;5069792;28;20433;-24
2024/02/07 13:07:05;;;;;;;10.60;6.27;;;10.40;99.90;;;;;;5099939;28;20429;-23
2024/02/07 13:09:33;;;;;;;10.63;5.90;;;10.40;99.90;;;;;;5107100;28;20417;-22
2024/02/07 13:11:59;;;;;;;12.90;6.80;;;10.40;99.90;;;;;;5100768;28;20945;-23
2024/02/07 13:14:25;;;;;;;10.70;6.27;;;10.40;99.90;;;;;;5108876;28;21269;-22
2024/02/07 13:16:52;;;;;;;8.37;5.73;;;10.40;99.90;;;;;;5093093;28;20492;-23
2024/02/07 13:19:18;;;;;;;9.80;6.37;;;10.40;99.90;;;;;;5103812;28;20451;-24
2024/02/07 13:21:45;;;;;;;7.97;6.30;;;10.40;99.90;;;;;;5096204;28;20459;-24
2024/02/07 13:24:15;;;;;;;7.50;6.47;;;10.40;99.90;;;;;;5080925;28;20450;-24
2024/02/07 13:26:44;;;;;;;11.00;6.10;;;10.40;99.90;;;;;;5108146;28;20499;-23
2024/02/07 13:29:13;;;;;;;8.70;5.97;;;10.40;99.90;;;;;;5074516;28;20954;-24
2024/02/07 13:31:42;;;;;;;8.33;6.03;;;10.40;99.90;;;;;;5098692;28;21277;-23
2024/02/07 13:34:10;;;;;;;9.37;5.80;;;10.40;99.90;;;;;;5093337;28;20517;-23
2024/02/07 13:36:36;;;;;;;9.83;6.00;;;10.40;99.90;;;;;;5100374;28;20452;-24
2024/02/07 13:39:06;;;;;;;9.17;6.23;;;10.40;99.90;;;;;;5043805;28;20427;-22
2024/02/07 13:41:33;;;;;;;9.57;6.30;;;10.40;99.90;;;;;;5105606;28;20436;-22
2024/02/07 13:44:00;;;;;;;8.60;5.20;;;10.40;99.90;;;;;;5104246;28;20447;-25
2024/02/07 13:46:31;;;;;;;12.93;6.67;;;10.40;99.90;;;;;;5100098;28;20428;-22
2024/02/07 13:49:04;;;;;;;7.77;5.13;;;10.40;99.90;;;;;;5073637;28;20844;-24
2024/02/07 13:51:32;;;;;;;9.37;6.33;;;10.40;99.90;;;;;;5110534;28;20448;-23
2024/02/07 13:54:01;;;;;;;7.30;5.30;;;10.40;99.90;;;;;;5077109;28;20441;-23
2024/02/07 13:56:28;;;;;;;8.63;6.30;;;10.40;99.90;;;;;;5083251;28;20476;-22